createdAt,value
2022-11-27T00:01:28.964Z,5.04
2022-11-27T00:03:56.760Z,5.06
2022-11-27T00:06:26.358Z,5.09
2022-11-27T00:08:53.956Z,5.08
2022-11-27T00:11:23.162Z,5.20
2022-11-27T00:13:50.843Z,5.16
2022-11-27T00:16:19.377Z,5.16
2022-11-27T00:18:46.866Z,5.30
2022-11-27T00:21:16.787Z,5.28
2022-11-27T00:23:44.071Z,5.18
2022-11-27T00:26:11.799Z,5.14
2022-11-27T00:28:38.837Z,5.12
2022-11-27T00:31:14.605Z,5.14
2022-11-27T00:33:42.176Z,5.14
2022-11-27T00:36:10.251Z,5.10
2022-11-27T00:38:39.207Z,5.03
2022-11-27T00:41:27.732Z,5.04
2022-11-27T00:43:55.734Z,5.09
2022-11-27T00:46:28.717Z,5.07
2022-11-27T00:49:01.940Z,5.09
2022-11-27T00:51:30.308Z,5.07
2022-11-27T00:53:57.693Z,5.09
2022-11-27T00:56:27.234Z,5.09
2022-11-27T00:58:55.296Z,5.06
2022-11-27T01:01:25.208Z,5.08
2022-11-27T01:03:52.305Z,5.07
2022-11-27T01:06:20.542Z,5.01
2022-11-27T01:08:48.206Z,5.01
2022-11-27T01:11:21.017Z,4.96
2022-11-27T01:13:48.447Z,4.98
2022-11-27T01:16:18.430Z,4.99
2022-11-27T01:18:47.792Z,5.16
2022-11-27T01:21:18.212Z,5.15
2022-11-27T01:23:45.918Z,5.13
2022-11-27T01:26:13.441Z,5.07
2022-11-27T01:28:41.469Z,5.03
2022-11-27T01:31:19.306Z,4.94
2022-11-27T01:33:47.261Z,4.91
2022-11-27T01:36:16.263Z,4.87
2022-11-27T01:38:43.365Z,4.82
2022-11-27T01:41:39.903Z,4.85
2022-11-27T01:44:25.432Z,4.81
2022-11-27T01:47:01.815Z,4.78
2022-11-27T01:49:41.339Z,4.76
2022-11-27T01:52:17.059Z,4.66
2022-11-27T01:54:58.820Z,4.61
2022-11-27T01:57:31.928Z,4.58
2022-11-27T02:00:00.917Z,4.59
2022-11-27T02:02:28.659Z,4.62
2022-11-27T02:04:58.747Z,4.64
2022-11-27T02:07:25.962Z,4.71
2022-11-27T02:09:53.098Z,4.69
2022-11-27T02:12:29.706Z,4.72
2022-11-27T02:15:09.268Z,4.82
2022-11-27T02:17:42.480Z,4.75
2022-11-27T02:20:23.584Z,4.84
2022-11-27T02:22:53.837Z,4.85
2022-11-27T02:25:43.678Z,4.97
2022-11-27T02:28:39.038Z,4.91
2022-11-27T02:31:15.137Z,4.76
2022-11-27T02:33:50.171Z,4.80
2022-11-27T02:36:24.641Z,4.80
2022-11-27T02:38:59.077Z,4.79
2022-11-27T02:41:33.343Z,4.72
2022-11-27T02:44:01.923Z,4.69
2022-11-27T02:46:29.590Z,4.74
2022-11-27T02:49:07.773Z,4.67
2022-11-27T02:51:39.787Z,4.76
2022-11-27T02:54:10.126Z,4.68
2022-11-27T02:56:39.850Z,4.65
2022-11-27T02:59:12.306Z,4.62
2022-11-27T03:01:48.049Z,4.73
2022-11-27T03:04:21.042Z,4.59
2022-11-27T03:06:53.405Z,4.58
2022-11-27T03:09:43.889Z,4.45
2022-11-27T03:12:13.019Z,4.47
2022-11-27T03:14:42.563Z,4.41
2022-11-27T03:17:43.846Z,4.39
2022-11-27T03:20:28.059Z,4.31
2022-11-27T03:22:55.775Z,4.31
2022-11-27T03:25:24.769Z,4.17
2022-11-27T03:27:59.880Z,4.17
2022-11-27T03:30:27.435Z,4.12
2022-11-27T03:32:55.389Z,4.06
2022-11-27T03:35:25.824Z,4.05
2022-11-27T03:37:54.762Z,4.08
2022-11-27T03:40:29.388Z,3.95
2022-11-27T03:43:09.780Z,3.96
2022-11-27T03:45:55.688Z,3.93
2022-11-27T03:48:45.967Z,3.99
2022-11-27T03:51:37.568Z,3.94
2022-11-27T03:54:10.969Z,3.98
2022-11-27T03:56:43.030Z,3.88
2022-11-27T03:59:16.627Z,3.83
2022-11-27T04:01:43.809Z,3.81
2022-11-27T04:04:11.228Z,3.70
2022-11-27T04:06:38.539Z,3.70
2022-11-27T04:09:05.575Z,3.77
2022-11-27T04:11:32.896Z,3.71
2022-11-27T04:13:59.994Z,3.60
2022-11-27T04:16:27.057Z,3.61
2022-11-27T04:18:54.363Z,3.57
2022-11-27T04:21:21.516Z,3.56
2022-11-27T04:23:48.546Z,3.52
2022-11-27T04:26:15.860Z,3.54
2022-11-27T04:28:42.994Z,3.54
2022-11-27T04:31:10.085Z,3.61
2022-11-27T04:33:37.479Z,3.61
2022-11-27T04:36:04.706Z,3.59
2022-11-27T04:38:31.715Z,3.55
2022-11-27T04:40:59.002Z,3.48
2022-11-27T04:43:25.993Z,3.63
2022-11-27T04:45:52.964Z,3.53
2022-11-27T04:48:20.266Z,3.48
2022-11-27T04:50:47.292Z,3.49
2022-11-27T04:53:14.334Z,3.31
2022-11-27T04:55:41.605Z,3.24
2022-11-27T04:58:08.595Z,3.21
2022-11-27T05:00:35.653Z,3.24
2022-11-27T05:03:03.031Z,3.29
2022-11-27T05:05:30.043Z,3.28
2022-11-27T05:07:57.096Z,3.26
2022-11-27T05:10:24.458Z,3.32
2022-11-27T05:12:51.479Z,3.34
2022-11-27T05:15:18.521Z,3.38
2022-11-27T05:17:45.795Z,3.29
2022-11-27T05:20:12.870Z,3.33
2022-11-27T05:22:39.944Z,3.11
2022-11-27T05:25:07.578Z,3.15
2022-11-27T05:27:34.610Z,3.12
2022-11-27T05:30:01.614Z,3.01
2022-11-27T05:32:28.878Z,2.99
2022-11-27T05:34:55.873Z,2.96
2022-11-27T05:37:22.860Z,3.00
2022-11-27T05:39:50.121Z,3.14
2022-11-27T05:42:17.182Z,3.01
2022-11-27T05:44:44.196Z,3.01
2022-11-27T05:47:11.464Z,3.08
2022-11-27T05:49:39.225Z,3.08
2022-11-27T05:52:06.237Z,3.05
2022-11-27T05:54:33.509Z,3.00
2022-11-27T05:57:00.484Z,3.01
2022-11-27T05:59:27.534Z,2.96
2022-11-27T06:01:54.802Z,2.94
2022-11-27T06:04:22.152Z,3.01
2022-11-27T06:06:49.179Z,2.89
2022-11-27T06:09:16.233Z,2.85
2022-11-27T06:11:43.672Z,2.86
2022-11-27T06:14:11.264Z,3.09
2022-11-27T06:16:38.676Z,3.14
2022-11-27T06:19:06.091Z,3.24
2022-11-27T06:21:33.078Z,3.27
2022-11-27T06:24:00.082Z,3.33
2022-11-27T06:26:30.220Z,3.35
2022-11-27T06:28:58.819Z,3.43
2022-11-27T06:31:29.147Z,3.49
2022-11-27T06:33:57.304Z,3.55
2022-11-27T06:36:28.263Z,3.61
2022-11-27T06:38:55.273Z,3.61
2022-11-27T06:41:24.792Z,3.64
2022-11-27T06:43:51.964Z,3.56
2022-11-27T06:46:21.484Z,3.66
2022-11-27T06:48:50.819Z,3.75
2022-11-27T06:51:20.859Z,3.71
2022-11-27T06:53:48.194Z,3.76
2022-11-27T06:56:18.874Z,3.78
2022-11-27T06:58:46.393Z,3.86
2022-11-27T07:01:15.873Z,3.92
2022-11-27T07:03:43.839Z,3.98
2022-11-27T07:06:15.190Z,4.17
2022-11-27T07:08:42.682Z,4.25
2022-11-27T07:11:18.347Z,4.35
2022-11-27T07:13:46.689Z,4.34
2022-11-27T07:16:15.243Z,4.53
2022-11-27T07:18:48.930Z,4.45
2022-11-27T07:21:17.402Z,4.50
2022-11-27T07:23:45.259Z,4.57
2022-11-27T07:26:15.282Z,4.64
2022-11-27T07:28:43.954Z,4.76
2022-11-27T07:31:12.745Z,4.85
2022-11-27T07:33:39.850Z,4.74
2022-11-27T07:36:12.774Z,4.87
2022-11-27T07:38:40.116Z,4.86
2022-11-27T07:41:07.828Z,4.83
2022-11-27T07:43:35.384Z,4.87
2022-11-27T07:46:12.353Z,4.86
2022-11-27T07:48:39.828Z,4.86
2022-11-27T07:51:08.649Z,4.96
2022-11-27T07:53:37.581Z,5.06
2022-11-27T07:56:13.031Z,5.16
2022-11-27T07:58:40.657Z,5.24
2022-11-27T08:01:10.074Z,5.19
2022-11-27T08:03:38.171Z,5.18
2022-11-27T08:06:13.011Z,5.18
2022-11-27T08:08:40.322Z,5.22
2022-11-27T08:11:14.226Z,5.34
2022-11-27T08:13:41.387Z,5.47
2022-11-27T08:16:08.886Z,5.40
2022-11-27T08:18:35.888Z,5.39
2022-11-27T08:21:03.278Z,5.52
2022-11-27T08:23:30.308Z,5.58
2022-11-27T08:25:57.351Z,5.58
2022-11-27T08:28:24.728Z,5.46
2022-11-27T08:30:59.340Z,5.33
2022-11-27T08:33:27.096Z,5.30
2022-11-27T08:35:54.410Z,5.24
2022-11-27T08:38:22.021Z,5.20
2022-11-27T08:41:00.654Z,5.28
2022-11-27T08:43:28.482Z,5.48
2022-11-27T08:45:57.653Z,5.43
2022-11-27T08:48:25.609Z,5.53
2022-11-27T08:50:53.259Z,5.51
2022-11-27T08:53:20.586Z,5.57
2022-11-27T08:55:47.927Z,5.54
2022-11-27T08:58:15.140Z,5.51
2022-11-27T09:00:42.508Z,5.50
2022-11-27T09:03:11.585Z,5.48
2022-11-27T09:05:42.764Z,5.55
2022-11-27T09:08:10.092Z,5.59
2022-11-27T09:10:37.331Z,5.43
2022-11-27T09:13:04.315Z,5.30
2022-11-27T09:15:31.586Z,5.26
2022-11-27T09:17:58.631Z,5.32
2022-11-27T09:20:25.651Z,5.42
2022-11-27T09:22:52.929Z,5.54
2022-11-27T09:25:19.923Z,5.46
2022-11-27T09:27:46.970Z,5.73
2022-11-27T09:30:14.521Z,5.75
2022-11-27T09:32:41.593Z,5.83
2022-11-27T09:35:08.884Z,5.82
2022-11-27T09:37:36.338Z,6.00
2022-11-27T09:40:03.818Z,6.07
2022-11-27T09:42:48.846Z,6.15
2022-11-27T09:45:17.742Z,6.17
2022-11-27T09:47:50.332Z,6.28
2022-11-27T09:50:24.321Z,6.44
2022-11-27T09:52:54.195Z,6.32
2022-11-27T09:55:40.260Z,6.29
2022-11-27T09:58:15.380Z,6.23
2022-11-27T10:00:46.700Z,6.21
2022-11-27T10:03:22.685Z,6.36
2022-11-27T10:06:16.783Z,6.22
2022-11-27T10:09:23.129Z,6.31
2022-11-27T10:12:07.901Z,6.27
2022-11-27T10:14:38.160Z,6.25
2022-11-27T10:17:22.923Z,6.06
2022-11-27T10:19:58.308Z,6.15
2022-11-27T10:22:36.824Z,6.23
2022-11-27T10:25:37.963Z,6.20
2022-11-27T10:28:10.931Z,6.15
2022-11-27T10:30:47.687Z,6.20
2022-11-27T10:33:22.066Z,6.12
2022-11-27T10:35:49.780Z,6.02
2022-11-27T10:38:23.745Z,5.95
2022-11-27T10:41:49.364Z,5.82
2022-11-27T10:44:31.651Z,6.02
2022-11-27T10:47:04.730Z,6.04
2022-11-27T10:49:32.027Z,6.10
2022-11-27T10:51:59.449Z,6.11
2022-11-27T10:54:32.423Z,6.03
2022-11-27T10:57:17.109Z,6.04
2022-11-27T10:59:59.275Z,6.12
2022-11-27T11:02:32.350Z,6.14
2022-11-27T11:08:17.550Z,6.33
2022-11-27T11:10:52.841Z,6.20
2022-11-27T11:13:28.437Z,6.26
2022-11-27T11:16:05.989Z,6.20
2022-11-27T11:18:41.486Z,6.19
2022-11-27T11:21:16.894Z,6.26
2022-11-27T11:23:46.847Z,6.22
2022-11-27T11:26:26.431Z,6.33
2022-11-27T11:28:59.698Z,6.22
2022-11-27T11:31:38.651Z,6.07
2022-11-27T11:34:27.226Z,6.27
2022-11-27T11:37:18.411Z,6.37
2022-11-27T11:39:52.342Z,6.34
2022-11-27T11:42:22.796Z,6.49
2022-11-27T11:45:07.364Z,6.43
2022-11-27T11:47:34.429Z,6.43
2022-11-27T11:50:01.885Z,6.40
2022-11-27T11:52:31.833Z,6.50
2022-11-27T11:55:10.950Z,6.50
2022-11-27T11:58:02.664Z,6.57
2022-11-27T12:01:11.861Z,6.51
2022-11-27T12:03:49.866Z,6.48
2022-11-27T12:06:33.273Z,6.39
2022-11-27T12:09:11.160Z,6.28
2022-11-27T12:11:57.373Z,6.25
2022-11-27T12:14:38.913Z,6.19
2022-11-27T12:17:24.437Z,5.95
2022-11-27T12:20:15.460Z,5.96
2022-11-27T12:23:00.500Z,6.04
2022-11-27T12:25:40.802Z,6.12
2022-11-27T12:28:28.944Z,6.17
2022-11-27T12:31:31.640Z,6.17
2022-11-27T12:34:24.752Z,6.23
2022-11-27T12:37:13.948Z,6.26
2022-11-27T12:39:53.322Z,6.18
2022-11-27T12:42:42.772Z,6.09
2022-11-27T12:45:21.157Z,6.11
2022-11-27T12:48:15.629Z,6.16
2022-11-27T12:50:50.772Z,6.11
2022-11-27T12:53:41.160Z,6.06
2022-11-27T12:56:17.064Z,6.13
2022-11-27T12:58:48.653Z,6.21
2022-11-27T13:01:26.583Z,6.15
2022-11-27T13:04:03.261Z,6.19
2022-11-27T13:06:34.853Z,6.25
2022-11-27T13:09:27.068Z,6.25
2022-11-27T13:11:55.582Z,6.27
2022-11-27T13:14:26.731Z,6.21
2022-11-27T13:16:58.532Z,6.22
2022-11-27T13:19:33.420Z,6.19
2022-11-27T13:22:04.418Z,6.13
2022-11-27T13:24:33.579Z,6.11
2022-11-27T13:27:13.768Z,5.99
2022-11-27T13:29:53.193Z,6.04
2022-11-27T13:32:30.449Z,6.02
2022-11-27T13:35:02.792Z,5.96
2022-11-27T13:37:40.995Z,5.95
2022-11-27T13:40:23.031Z,5.99
2022-11-27T13:42:55.455Z,5.93
2022-11-27T13:45:26.507Z,5.88
2022-11-27T13:47:56.072Z,5.90
2022-11-27T13:50:29.671Z,5.92
2022-11-27T13:53:07.378Z,5.85
2022-11-27T13:55:37.112Z,5.80
2022-11-27T13:58:06.558Z,5.74
2022-11-27T14:00:36.650Z,5.79
2022-11-27T14:03:04.525Z,5.78
2022-11-27T14:05:38.934Z,5.71
2022-11-27T14:08:27.999Z,5.68
2022-11-27T14:11:05.893Z,5.73
2022-11-27T14:13:37.573Z,5.66
2022-11-27T14:16:20.077Z,5.64
2022-11-27T14:18:53.272Z,5.65
2022-11-27T14:21:31.052Z,5.59
2022-11-27T14:24:00.609Z,5.58
2022-11-27T14:26:27.609Z,5.48
2022-11-27T14:28:56.106Z,5.55
2022-11-27T14:31:35.740Z,5.50
2022-11-27T14:34:24.331Z,5.46
2022-11-27T14:36:53.035Z,5.46
2022-11-27T14:39:31.708Z,5.51
2022-11-27T14:42:19.114Z,5.57
2022-11-27T14:44:46.170Z,5.49
2022-11-27T14:47:20.677Z,5.52
2022-11-27T14:49:55.965Z,5.55
2022-11-27T14:52:24.335Z,5.45
2022-11-27T14:54:52.516Z,5.40
2022-11-27T14:57:27.756Z,5.31
2022-11-27T15:00:05.139Z,5.40
2022-11-27T15:02:32.489Z,5.42
2022-11-27T15:05:05.885Z,5.34
2022-11-27T15:07:45.296Z,5.28
2022-11-27T15:10:29.190Z,5.30
2022-11-27T15:12:56.575Z,5.34
2022-11-27T15:15:29.500Z,5.38
2022-11-27T15:18:00.777Z,5.24
2022-11-27T15:20:40.256Z,5.18
2022-11-27T15:23:27.853Z,5.20
2022-11-27T15:26:16.116Z,5.14
2022-11-27T15:28:57.207Z,5.11
2022-11-27T15:31:29.056Z,5.22
2022-11-27T15:34:03.786Z,5.17
2022-11-27T15:36:38.944Z,5.13
2022-11-27T15:39:32.230Z,5.10
2022-11-27T15:42:01.288Z,5.02
2022-11-27T15:44:32.072Z,5.20
2022-11-27T15:47:04.476Z,5.24
2022-11-27T15:49:32.075Z,5.15
2022-11-27T15:51:59.449Z,5.08
2022-11-27T15:54:26.694Z,5.08
2022-11-27T15:56:53.699Z,5.07
2022-11-27T15:59:21.243Z,4.97
2022-11-27T16:01:49.693Z,4.93
2022-11-27T16:04:17.427Z,4.91
2022-11-27T16:06:45.239Z,4.94
2022-11-27T16:09:12.463Z,5.04
2022-11-27T16:11:39.766Z,5.20
2022-11-27T16:14:07.429Z,5.06
2022-11-27T16:16:35.429Z,5.15
2022-11-27T16:19:05.478Z,5.11
2022-11-27T16:21:33.999Z,5.04
2022-11-27T16:24:03.543Z,5.02
2022-11-27T16:26:31.437Z,4.94
2022-11-27T16:28:58.843Z,5.12
2022-11-27T16:31:26.712Z,4.99
2022-11-27T16:33:54.401Z,4.90
2022-11-27T16:36:22.766Z,4.96
2022-11-27T16:38:54.974Z,5.07
2022-11-27T16:41:24.824Z,5.08
2022-11-27T16:43:56.158Z,5.01
2022-11-27T16:46:26.476Z,5.14
2022-11-27T16:48:54.826Z,5.15
2022-11-27T16:51:33.420Z,5.06
2022-11-27T16:54:06.041Z,5.04
2022-11-27T16:56:34.810Z,4.98
2022-11-27T16:59:08.572Z,5.01
2022-11-27T17:01:36.638Z,5.01
2022-11-27T17:04:07.118Z,4.99
2022-11-27T17:06:35.028Z,5.07
2022-11-27T17:09:05.976Z,5.04
2022-11-27T17:11:35.724Z,4.95
2022-11-27T17:14:06.381Z,4.94
2022-11-27T17:16:35.276Z,5.05
2022-11-27T17:19:03.693Z,5.00
2022-11-27T17:21:33.335Z,4.99
2022-11-27T17:24:11.657Z,4.94
2022-11-27T17:26:43.161Z,4.97
2022-11-27T17:29:12.798Z,4.99
2022-11-27T17:31:40.174Z,5.09
2022-11-27T17:34:10.923Z,5.13
2022-11-27T17:36:39.961Z,5.01
2022-11-27T17:39:09.530Z,5.05
2022-11-27T17:41:36.727Z,4.99
2022-11-27T17:44:08.052Z,4.94
2022-11-27T17:46:36.933Z,4.94
2022-11-27T17:49:07.074Z,4.91
2022-11-27T17:51:35.733Z,4.96
2022-11-27T17:54:03.907Z,5.05
2022-11-27T17:56:34.377Z,4.92
2022-11-27T17:59:01.767Z,4.93
2022-11-27T18:01:29.667Z,4.87
2022-11-27T18:04:00.462Z,4.91
2022-11-27T18:06:29.765Z,4.91
2022-11-27T18:08:58.293Z,5.02
2022-11-27T18:11:28.011Z,5.05
2022-11-27T18:13:56.499Z,5.04
2022-11-27T18:16:30.947Z,4.97
2022-11-27T18:18:59.098Z,5.04
2022-11-27T18:21:28.560Z,4.97
2022-11-27T18:29:30.502Z,4.93
2022-11-27T18:31:58.043Z,4.96
2022-11-27T18:34:25.296Z,4.92
2022-11-27T18:36:57.100Z,4.90
2022-11-27T18:39:24.381Z,4.84
2022-11-27T18:41:51.917Z,4.99
2022-11-27T18:44:19.117Z,4.94
2022-11-27T18:46:46.519Z,4.88
2022-11-27T18:49:15.424Z,4.88
2022-11-27T18:51:42.467Z,4.83
2022-11-27T18:54:09.822Z,4.93
2022-11-27T18:56:37.586Z,4.87
2022-11-27T18:59:06.344Z,4.88
2022-11-27T19:01:41.224Z,4.97
2022-11-27T19:04:10.468Z,4.90
2022-11-27T19:06:39.298Z,4.91
2022-11-27T19:09:06.931Z,4.93
2022-11-27T19:11:35.273Z,4.96
2022-11-27T19:14:04.245Z,4.91
2022-11-27T19:16:38.427Z,4.93
2022-11-27T19:19:06.342Z,4.92
2022-11-27T19:21:35.745Z,4.91
2022-11-27T19:24:04.669Z,4.92
2022-11-27T19:26:34.451Z,4.98
2022-11-27T19:29:05.571Z,4.93
2022-11-27T19:31:36.423Z,4.91
2022-11-27T19:34:05.279Z,4.89
2022-11-27T19:36:34.750Z,4.93
2022-11-27T19:39:06.748Z,4.93
2022-11-27T19:41:34.646Z,4.96
2022-11-27T19:44:06.485Z,4.90
2022-11-27T19:46:36.767Z,4.86
2022-11-27T19:49:07.992Z,4.95
2022-11-27T19:51:37.624Z,4.90
2022-11-27T19:54:10.022Z,4.81
2022-11-27T19:56:40.192Z,4.80
2022-11-27T19:59:10.506Z,4.81
2022-11-27T20:01:40.305Z,4.91
2022-11-27T20:04:10.739Z,4.88
2022-11-27T20:06:39.253Z,4.80
2022-11-27T20:09:07.085Z,4.89
2022-11-27T20:11:35.697Z,4.89
2022-11-27T20:14:05.530Z,4.91
2022-11-27T20:16:33.398Z,4.82
2022-11-27T20:19:02.815Z,4.75
2022-11-27T20:21:29.923Z,4.84
2022-11-27T20:23:57.475Z,4.95
2022-11-27T20:26:27.535Z,4.87
2022-11-27T20:28:55.134Z,4.80
2022-11-27T20:31:26.118Z,4.70
2022-11-27T20:33:56.114Z,4.59
2022-11-27T20:36:24.614Z,4.60
2022-11-27T20:38:52.403Z,4.69
2022-11-27T20:41:21.106Z,4.58
2022-11-27T20:43:50.710Z,4.61
2022-11-27T20:46:18.334Z,4.54
2022-11-27T20:48:47.632Z,4.56
2022-11-27T20:51:18.288Z,4.60
2022-11-27T20:53:46.447Z,4.63
2022-11-27T20:56:15.521Z,4.60
2022-11-27T20:58:44.574Z,4.61
2022-11-27T21:01:26.264Z,4.58
2022-11-27T21:03:54.831Z,4.65
2022-11-27T21:06:26.062Z,4.62
2022-11-27T21:08:53.460Z,4.62
2022-11-27T21:11:24.986Z,4.67
2022-11-27T21:14:01.595Z,4.63
2022-11-27T21:16:30.984Z,4.67
2022-11-27T21:19:00.629Z,4.61
2022-11-27T21:21:28.356Z,4.61
2022-11-27T21:23:55.679Z,4.59
2022-11-27T21:26:23.351Z,4.54
2022-11-27T21:28:50.517Z,4.52
2022-11-27T21:31:20.576Z,4.47
2022-11-27T21:33:53.012Z,4.45
2022-11-27T21:36:21.788Z,4.51
2022-11-27T21:38:49.679Z,4.46
2022-11-27T21:41:17.820Z,4.40
2022-11-27T21:43:46.128Z,4.41
2022-11-27T21:46:19.039Z,4.39
2022-11-27T21:48:48.014Z,4.42
2022-11-27T21:51:17.052Z,4.36
2022-11-27T21:53:45.929Z,4.43
2022-11-27T21:56:16.961Z,4.38
2022-11-27T21:58:44.685Z,4.34
2022-11-27T22:01:15.282Z,4.35
2022-11-27T22:03:43.286Z,4.37
2022-11-27T22:06:12.830Z,4.32
2022-11-27T22:08:41.012Z,4.26
2022-11-27T22:11:10.178Z,4.27
2022-11-27T22:13:38.191Z,4.26
2022-11-27T22:16:10.524Z,4.23
2022-11-27T22:18:37.984Z,4.23
2022-11-27T22:21:06.874Z,4.28
2022-11-27T22:23:34.650Z,4.30
2022-11-27T22:26:08.899Z,4.28
2022-11-27T22:28:37.107Z,4.32
2022-11-27T22:31:09.803Z,4.26
2022-11-27T22:33:38.721Z,4.26
2022-11-27T22:36:16.252Z,4.25
2022-11-27T22:38:48.587Z,4.26
2022-11-27T22:41:17.503Z,4.27
2022-11-27T22:43:44.993Z,4.26
2022-11-27T22:46:18.256Z,4.30
2022-11-27T22:48:46.241Z,4.34
2022-11-27T22:51:13.989Z,4.49
2022-11-27T22:53:41.119Z,4.39
2022-11-27T22:56:11.935Z,4.35
2022-11-27T22:58:41.853Z,4.33
2022-11-27T23:01:15.292Z,4.29
2022-11-27T23:03:43.037Z,4.34
2022-11-27T23:06:15.306Z,4.46
2022-11-27T23:08:44.769Z,4.45
2022-11-27T23:11:19.292Z,4.49
2022-11-27T23:13:49.698Z,4.53
2022-11-27T23:16:18.228Z,4.49
2022-11-27T23:18:45.598Z,4.42
2022-11-27T23:21:15.676Z,4.39
2022-11-27T23:23:43.312Z,4.51
2022-11-27T23:26:17.686Z,4.58
2022-11-27T23:28:46.870Z,4.53
2022-11-27T23:31:29.797Z,4.38
2022-11-27T23:33:59.239Z,4.46
2022-11-27T23:36:26.853Z,4.42
2022-11-27T23:38:53.816Z,4.55
2022-11-27T23:41:23.715Z,4.55
2022-11-27T23:43:52.205Z,4.51
2022-11-27T23:46:21.414Z,4.51
2022-11-27T23:48:49.057Z,4.45
2022-11-27T23:51:18.432Z,4.38
2022-11-27T23:53:46.614Z,4.36
2022-11-27T23:56:16.228Z,4.35
2022-11-27T23:58:47.080Z,4.34
